createdAt,value
2022-12-31T00:02:59.626Z,88.50
2022-12-31T00:06:02.341Z,88.80
2022-12-31T00:09:06.512Z,89.40
2022-12-31T00:12:08.527Z,89.00
2022-12-31T00:15:10.370Z,88.90
2022-12-31T00:18:12.307Z,88.60
2022-12-31T00:21:15.381Z,88.30
2022-12-31T00:24:19.303Z,88.30
2022-12-31T00:27:21.228Z,88.10
2022-12-31T00:30:23.415Z,87.90
2022-12-31T00:33:25.260Z,88.30
2022-12-31T00:36:30.408Z,88.20
2022-12-31T00:39:32.392Z,88.60
2022-12-31T00:42:34.252Z,89.20
2022-12-31T00:45:38.997Z,89.30
2022-12-31T00:48:41.097Z,89.40
2022-12-31T00:51:43.064Z,89.30
2022-12-31T00:54:44.879Z,88.90
2022-12-31T00:57:49.922Z,88.80
2022-12-31T01:00:51.783Z,88.60
2022-12-31T01:03:57.853Z,87.90
2022-12-31T01:07:02.240Z,87.50
2022-12-31T01:10:06.939Z,86.90
2022-12-31T01:13:11.426Z,86.40
2022-12-31T01:16:14.951Z,86.20
2022-12-31T01:19:26.050Z,85.70
2022-12-31T01:22:28.029Z,85.90
2022-12-31T01:25:29.884Z,85.70
2022-12-31T01:28:32.295Z,85.60
2022-12-31T01:31:34.703Z,85.40
2022-12-31T01:34:36.548Z,84.90
2022-12-31T01:37:38.410Z,84.60
2022-12-31T01:40:41.218Z,84.30
2022-12-31T01:43:53.952Z,84.00
2022-12-31T01:47:02.815Z,83.30
2022-12-31T01:50:12.729Z,82.90
2022-12-31T01:53:16.105Z,82.80
2022-12-31T01:56:20.848Z,82.80
2022-12-31T01:59:25.097Z,82.20
2022-12-31T02:02:27.586Z,82.60
2022-12-31T02:05:46.431Z,81.80
2022-12-31T02:08:48.856Z,81.40
2022-12-31T02:11:50.721Z,81.60
2022-12-31T02:14:54.488Z,81.30
2022-12-31T02:18:07.896Z,80.90
2022-12-31T02:21:31.025Z,80.30
2022-12-31T02:24:50.945Z,80.50
2022-12-31T02:28:29.517Z,79.80
2022-12-31T02:31:39.493Z,79.20
2022-12-31T02:35:07.279Z,79.40
2022-12-31T02:38:14.298Z,79.00
2022-12-31T02:41:19.650Z,78.50
2022-12-31T02:44:31.658Z,78.30
2022-12-31T02:47:39.383Z,79.00
2022-12-31T02:51:02.646Z,79.50
2022-12-31T02:54:28.266Z,79.80
2022-12-31T02:57:47.419Z,79.50
2022-12-31T03:00:54.064Z,79.20
2022-12-31T03:03:55.987Z,79.10
2022-12-31T03:07:12.728Z,79.90
2022-12-31T03:10:14.703Z,79.50
2022-12-31T03:13:16.699Z,80.20
2022-12-31T03:16:18.729Z,79.70
2022-12-31T03:19:22.822Z,79.40
2022-12-31T03:22:24.835Z,80.10
2022-12-31T03:25:26.736Z,80.20
2022-12-31T03:28:30.615Z,79.60
2022-12-31T03:31:32.565Z,78.90
2022-12-31T03:34:36.073Z,78.80
2022-12-31T03:37:39.273Z,78.80
2022-12-31T03:40:44.480Z,78.40
2022-12-31T03:43:46.293Z,78.40
2022-12-31T03:46:48.247Z,78.40
2022-12-31T03:49:52.620Z,78.10
2022-12-31T03:52:54.951Z,78.30
2022-12-31T03:55:56.697Z,78.00
2022-12-31T03:59:01.133Z,78.20
2022-12-31T04:02:03.383Z,78.30
2022-12-31T04:05:06.179Z,78.50
2022-12-31T04:08:08.049Z,78.10
2022-12-31T04:11:15.978Z,78.30
2022-12-31T04:14:20.966Z,78.40
2022-12-31T04:17:22.854Z,78.30
2022-12-31T04:20:24.847Z,78.40
2022-12-31T04:23:27.106Z,78.10
2022-12-31T04:26:29.361Z,78.90
2022-12-31T04:29:31.229Z,78.70
2022-12-31T04:32:33.188Z,79.10
2022-12-31T04:35:35.086Z,78.90
2022-12-31T04:38:37.054Z,78.90
2022-12-31T04:41:38.892Z,78.90
2022-12-31T04:44:41.009Z,78.60
2022-12-31T04:47:43.166Z,78.60
2022-12-31T04:50:46.883Z,78.70
2022-12-31T04:53:51.353Z,78.50
2022-12-31T04:56:53.255Z,78.60
2022-12-31T04:59:55.157Z,78.60
2022-12-31T05:02:56.971Z,78.80
2022-12-31T05:06:08.147Z,78.50
2022-12-31T05:09:10.121Z,78.50
2022-12-31T05:12:12.428Z,78.30
2022-12-31T05:15:14.293Z,78.30
2022-12-31T05:18:16.604Z,78.80
2022-12-31T05:21:21.298Z,78.60
2022-12-31T05:24:23.201Z,78.60
2022-12-31T05:27:25.497Z,78.90
2022-12-31T05:30:27.307Z,78.80
2022-12-31T05:33:29.203Z,78.70
2022-12-31T05:36:31.292Z,79.00
2022-12-31T05:39:34.056Z,79.10
2022-12-31T05:42:35.942Z,79.10
2022-12-31T05:45:37.850Z,78.70
2022-12-31T05:48:42.136Z,78.70
2022-12-31T05:51:44.404Z,79.20
2022-12-31T05:54:46.203Z,78.90
2022-12-31T05:57:48.116Z,78.90
2022-12-31T06:00:54.544Z,78.90
2022-12-31T06:03:56.447Z,79.10
2022-12-31T06:06:58.360Z,78.90
2022-12-31T06:10:02.484Z,78.90
2022-12-31T06:13:04.501Z,79.00
2022-12-31T06:16:10.330Z,79.00
2022-12-31T06:19:12.282Z,79.00
2022-12-31T06:22:14.260Z,78.90
2022-12-31T06:25:16.268Z,79.20
2022-12-31T06:28:20.584Z,79.60
2022-12-31T06:31:25.357Z,79.40
2022-12-31T06:34:27.314Z,79.40
2022-12-31T06:37:29.164Z,79.90
2022-12-31T06:40:31.036Z,80.10
2022-12-31T06:43:34.301Z,80.10
2022-12-31T06:46:36.235Z,79.80
2022-12-31T06:49:38.059Z,79.70
2022-12-31T06:52:39.921Z,79.60
2022-12-31T06:55:42.357Z,79.40
2022-12-31T06:58:45.225Z,79.30
2022-12-31T07:01:56.157Z,79.40
2022-12-31T07:05:00.767Z,79.10
2022-12-31T07:08:05.574Z,78.70
2022-12-31T07:11:31.458Z,78.40
2022-12-31T07:14:41.355Z,78.30
2022-12-31T07:18:01.372Z,78.30
2022-12-31T07:21:03.537Z,77.90
2022-12-31T07:24:10.031Z,78.50
2022-12-31T07:27:41.278Z,78.60
2022-12-31T07:31:01.697Z,78.40
2022-12-31T07:34:29.806Z,78.20
2022-12-31T07:37:44.353Z,78.00
2022-12-31T07:40:52.196Z,77.80
2022-12-31T07:44:12.629Z,77.80
2022-12-31T07:47:20.017Z,77.40
2022-12-31T07:50:22.198Z,77.40
2022-12-31T07:53:25.409Z,77.50
2022-12-31T07:56:27.281Z,77.50
2022-12-31T07:59:52.741Z,77.10
2022-12-31T08:03:20.722Z,76.80
2022-12-31T08:06:52.998Z,77.00
2022-12-31T08:10:18.087Z,76.60
2022-12-31T08:13:21.100Z,76.50
2022-12-31T08:16:23.337Z,76.20
2022-12-31T08:19:29.463Z,76.20
2022-12-31T08:22:44.225Z,76.00
2022-12-31T08:25:56.944Z,75.80
2022-12-31T08:29:16.904Z,75.70
2022-12-31T08:32:50.140Z,75.30
2022-12-31T08:36:21.745Z,74.90
2022-12-31T08:39:46.202Z,74.80
2022-12-31T08:43:07.002Z,74.20
2022-12-31T08:46:26.065Z,73.60
2022-12-31T08:49:33.118Z,73.50
2022-12-31T08:52:37.675Z,73.00
2022-12-31T08:55:42.173Z,72.20
2022-12-31T08:58:51.113Z,71.70
2022-12-31T09:02:08.450Z,71.20
2022-12-31T09:05:23.965Z,71.10
2022-12-31T09:08:25.817Z,70.80
2022-12-31T09:12:05.057Z,70.80
2022-12-31T09:15:28.333Z,70.10
2022-12-31T09:18:34.505Z,68.70
2022-12-31T09:21:37.018Z,67.40
2022-12-31T09:24:39.225Z,66.40
2022-12-31T09:27:46.234Z,66.50
2022-12-31T09:30:58.675Z,64.00
2022-12-31T09:34:37.323Z,60.20
2022-12-31T09:37:58.567Z,57.80
2022-12-31T09:41:14.199Z,56.20
2022-12-31T09:44:43.881Z,56.40
2022-12-31T09:48:03.189Z,58.40
2022-12-31T09:51:26.740Z,58.60
2022-12-31T09:54:45.205Z,59.30
2022-12-31T09:58:07.777Z,58.90
2022-12-31T10:01:38.365Z,56.40
2022-12-31T10:05:24.186Z,56.30
2022-12-31T10:08:49.244Z,57.00
2022-12-31T10:11:54.097Z,56.50
2022-12-31T10:15:05.023Z,55.20
2022-12-31T10:18:34.752Z,54.50
2022-12-31T10:21:43.899Z,53.20
2022-12-31T10:24:59.665Z,53.50
2022-12-31T10:28:17.881Z,53.40
2022-12-31T10:31:39.935Z,53.30
2022-12-31T10:35:00.403Z,52.50
2022-12-31T10:38:31.997Z,51.70
2022-12-31T10:41:53.691Z,50.50
2022-12-31T10:45:25.696Z,51.30
2022-12-31T10:49:03.334Z,50.20
2022-12-31T10:52:14.158Z,51.20
2022-12-31T10:55:53.115Z,51.80
2022-12-31T10:59:06.137Z,51.70
2022-12-31T11:02:38.720Z,52.40
2022-12-31T11:06:02.392Z,53.00
2022-12-31T11:09:34.721Z,52.00
2022-12-31T11:12:54.999Z,51.40
2022-12-31T11:16:11.113Z,50.90
2022-12-31T11:19:18.977Z,51.00
2022-12-31T11:22:58.415Z,52.00
2022-12-31T11:26:19.599Z,52.70
2022-12-31T11:29:52.204Z,52.20
2022-12-31T11:33:35.137Z,52.90
2022-12-31T11:36:44.007Z,53.40
2022-12-31T11:40:26.199Z,54.10
2022-12-31T11:43:32.554Z,55.40
2022-12-31T11:46:47.811Z,54.70
2022-12-31T12:06:47.573Z,56.00
2022-12-31T12:09:58.718Z,55.40
2022-12-31T12:13:40.531Z,55.50
2022-12-31T12:16:42.739Z,54.80
2022-12-31T12:19:53.257Z,54.90
2022-12-31T12:22:57.269Z,54.50
2022-12-31T12:26:09.607Z,54.90
2022-12-31T12:29:14.718Z,54.50
2022-12-31T12:32:27.465Z,54.50
2022-12-31T12:38:47.636Z,54.90
2022-12-31T12:41:59.845Z,55.00
2022-12-31T12:45:23.649Z,55.00
2022-12-31T12:48:42.205Z,56.00
2022-12-31T12:52:02.929Z,55.40
2022-12-31T12:55:10.711Z,55.20
2022-12-31T12:58:37.134Z,54.80
2022-12-31T13:02:11.749Z,56.10
2022-12-31T13:05:38.244Z,56.00
2022-12-31T13:08:58.352Z,56.10
2022-12-31T13:12:24.486Z,56.60
2022-12-31T13:16:05.561Z,56.70
2022-12-31T13:19:29.426Z,56.60
2022-12-31T13:22:55.504Z,56.10
2022-12-31T13:26:03.466Z,56.80
2022-12-31T13:29:11.574Z,56.70
2022-12-31T13:32:18.289Z,56.40
2022-12-31T13:35:40.228Z,56.70
2022-12-31T13:38:57.488Z,56.80
2022-12-31T13:45:18.538Z,57.30
2022-12-31T13:48:30.273Z,56.90
2022-12-31T13:51:47.957Z,57.40
2022-12-31T13:54:59.764Z,57.20
2022-12-31T13:58:33.979Z,57.70
2022-12-31T14:01:51.910Z,58.00
2022-12-31T14:05:01.528Z,58.20
2022-12-31T14:08:05.955Z,58.30
2022-12-31T14:11:18.327Z,58.20
2022-12-31T14:15:05.232Z,58.60
2022-12-31T14:18:34.387Z,58.40
2022-12-31T14:21:44.613Z,58.20
2022-12-31T14:24:49.492Z,58.30
2022-12-31T14:31:24.895Z,58.50
2022-12-31T14:34:54.424Z,58.80
2022-12-31T14:37:59.388Z,59.10
2022-12-31T14:41:23.171Z,58.80
2022-12-31T14:44:48.749Z,59.20
2022-12-31T14:47:56.944Z,59.30
2022-12-31T14:51:02.420Z,59.40
2022-12-31T14:54:05.687Z,59.30
2022-12-31T14:57:31.815Z,60.00
2022-12-31T15:00:37.252Z,60.10
2022-12-31T15:03:45.772Z,60.60
2022-12-31T15:07:28.491Z,60.30
2022-12-31T15:11:08.712Z,60.20
2022-12-31T15:14:37.480Z,60.50
2022-12-31T15:17:54.980Z,60.30
2022-12-31T15:21:17.946Z,59.90
2022-12-31T15:24:22.784Z,59.90
2022-12-31T15:27:31.186Z,60.10
2022-12-31T15:30:38.385Z,59.90
2022-12-31T15:33:55.658Z,59.70
2022-12-31T15:37:00.470Z,59.80
2022-12-31T15:40:18.604Z,60.10
2022-12-31T15:43:29.798Z,60.40
2022-12-31T15:46:37.111Z,60.60
2022-12-31T15:49:44.856Z,60.50
2022-12-31T15:52:53.953Z,60.90
2022-12-31T15:55:58.639Z,61.10
2022-12-31T15:59:03.694Z,61.40
2022-12-31T16:02:26.733Z,61.00
2022-12-31T16:05:28.769Z,61.20
2022-12-31T16:08:33.978Z,61.40
2022-12-31T16:11:39.694Z,61.50
2022-12-31T16:14:45.215Z,61.60
2022-12-31T16:17:57.578Z,61.10
2022-12-31T16:20:59.508Z,61.50
2022-12-31T16:24:07.346Z,61.70
2022-12-31T16:27:17.284Z,61.30
2022-12-31T16:30:54.599Z,61.30
2022-12-31T16:37:42.978Z,61.60
2022-12-31T16:41:13.504Z,61.90
2022-12-31T16:44:34.363Z,61.80
2022-12-31T16:47:53.310Z,62.60
2022-12-31T16:51:18.735Z,63.10
2022-12-31T16:54:40.772Z,63.30
2022-12-31T16:57:48.239Z,64.00
2022-12-31T17:00:51.563Z,64.50
2022-12-31T17:04:10.301Z,64.60
2022-12-31T17:07:30.887Z,64.10
2022-12-31T17:10:42.240Z,64.10
2022-12-31T17:17:26.632Z,63.80
2022-12-31T17:20:41.055Z,64.00
2022-12-31T17:24:07.237Z,64.00
2022-12-31T17:27:17.314Z,64.20
2022-12-31T17:30:22.197Z,64.10
2022-12-31T17:33:24.042Z,64.00
2022-12-31T17:36:27.654Z,64.30
2022-12-31T17:39:47.717Z,64.40
2022-12-31T17:42:50.040Z,64.50
2022-12-31T17:45:54.284Z,65.70
2022-12-31T17:49:02.595Z,66.00
2022-12-31T17:52:06.470Z,66.60
2022-12-31T17:55:08.503Z,66.90
2022-12-31T17:58:35.107Z,66.90
2022-12-31T18:01:37.196Z,66.70
2022-12-31T18:04:39.157Z,66.70
2022-12-31T18:07:41.064Z,66.80
2022-12-31T18:10:44.796Z,67.10
2022-12-31T18:13:49.333Z,67.50
2022-12-31T18:16:51.643Z,67.60
2022-12-31T18:20:04.598Z,67.20
2022-12-31T18:23:17.568Z,66.80
2022-12-31T18:26:22.451Z,66.70
2022-12-31T18:29:26.562Z,66.90
2022-12-31T18:32:30.592Z,66.90
2022-12-31T18:36:07.222Z,66.70
2022-12-31T18:38:55.268Z,66.40
2022-12-31T18:41:57.174Z,66.20
2022-12-31T18:45:01.417Z,66.10
2022-12-31T18:48:03.315Z,66.10
2022-12-31T18:51:05.404Z,65.90
2022-12-31T18:54:11.459Z,65.50
2022-12-31T18:57:15.570Z,66.00
2022-12-31T19:00:17.630Z,65.70
2022-12-31T19:03:22.939Z,66.10
2022-12-31T19:06:25.518Z,66.20
2022-12-31T19:12:49.730Z,66.50
2022-12-31T19:15:52.375Z,66.80
2022-12-31T19:18:54.429Z,66.80
2022-12-31T19:21:56.329Z,66.90
2022-12-31T19:24:58.221Z,66.90
2022-12-31T19:28:01.690Z,67.10
2022-12-31T19:31:03.610Z,67.10
2022-12-31T19:34:05.458Z,67.10
2022-12-31T19:37:07.347Z,67.30
2022-12-31T19:40:15.668Z,67.40
2022-12-31T19:43:18.793Z,67.70
2022-12-31T19:46:20.791Z,68.00
2022-12-31T19:49:23.291Z,68.00
2022-12-31T19:52:25.155Z,68.20
2022-12-31T19:55:27.149Z,67.70
2022-12-31T19:58:29.105Z,67.90
2022-12-31T20:01:31.085Z,68.10
2022-12-31T20:04:33.296Z,68.10
2022-12-31T20:07:35.379Z,67.80
2022-12-31T20:10:37.523Z,67.90
2022-12-31T20:13:40.369Z,67.90
2022-12-31T20:16:43.079Z,67.90
2022-12-31T20:19:45.132Z,67.90
2022-12-31T20:22:47.172Z,67.90
2022-12-31T20:25:59.186Z,68.20
2022-12-31T20:29:01.071Z,68.50
2022-12-31T20:32:03.134Z,68.80
2022-12-31T20:35:05.490Z,68.80
2022-12-31T20:38:07.347Z,69.00
2022-12-31T20:41:14.799Z,69.10
2022-12-31T20:44:16.706Z,69.20
2022-12-31T20:47:18.578Z,69.10
2022-12-31T20:50:20.495Z,69.00
2022-12-31T20:53:22.449Z,69.10
2022-12-31T20:56:26.997Z,69.20
2022-12-31T20:59:28.968Z,69.20
2022-12-31T21:02:41.482Z,69.30
2022-12-31T21:05:53.092Z,69.70
2022-12-31T21:08:56.195Z,70.60
2022-12-31T21:11:58.329Z,70.50
2022-12-31T21:15:00.339Z,72.10
2022-12-31T21:18:05.419Z,72.80
2022-12-31T21:21:07.326Z,73.20
2022-12-31T21:24:09.377Z,73.70
2022-12-31T21:27:11.340Z,74.20
2022-12-31T21:30:18.993Z,74.00
2022-12-31T21:33:21.431Z,74.30
2022-12-31T21:36:23.390Z,73.70
2022-12-31T21:39:25.279Z,73.60
2022-12-31T21:42:27.180Z,73.30
2022-12-31T21:45:29.208Z,73.30
2022-12-31T21:48:31.754Z,73.10
2022-12-31T21:51:33.643Z,72.80
2022-12-31T21:58:15.444Z,72.90
2022-12-31T22:01:07.390Z,72.60
2022-12-31T22:04:28.213Z,72.60
2022-12-31T22:07:31.211Z,72.60
2022-12-31T22:10:37.265Z,72.80
2022-12-31T22:13:40.537Z,73.10
2022-12-31T22:16:42.492Z,73.30
2022-12-31T22:20:17.217Z,73.70
2022-12-31T22:23:06.540Z,72.90
2022-12-31T22:26:10.600Z,72.60
2022-12-31T22:29:12.627Z,72.10
2022-12-31T22:32:16.753Z,71.80
2022-12-31T22:35:18.669Z,71.60
2022-12-31T22:38:21.567Z,71.10
2022-12-31T22:41:24.330Z,70.40
2022-12-31T22:44:26.151Z,70.30
2022-12-31T22:47:28.018Z,70.00
2022-12-31T22:50:29.958Z,70.00
2022-12-31T22:53:32.251Z,69.70
2022-12-31T22:56:34.325Z,69.40
2022-12-31T22:59:37.243Z,69.50
2022-12-31T23:02:42.011Z,69.30
2022-12-31T23:05:45.204Z,69.00
2022-12-31T23:08:47.370Z,69.20
2022-12-31T23:11:49.347Z,69.30
2022-12-31T23:14:51.545Z,69.10
2022-12-31T23:17:53.386Z,69.10
2022-12-31T23:20:55.281Z,69.40
2022-12-31T23:23:57.128Z,69.00
2022-12-31T23:26:59.163Z,69.20
2022-12-31T23:30:01.142Z,68.80
2022-12-31T23:33:03.093Z,68.20
2022-12-31T23:36:06.193Z,68.10
2022-12-31T23:39:08.570Z,68.10
2022-12-31T23:42:10.600Z,67.40
2022-12-31T23:45:12.562Z,67.70
2022-12-31T23:48:17.092Z,67.20
2022-12-31T23:51:18.962Z,66.90
2022-12-31T23:54:20.937Z,66.80
2022-12-31T23:57:22.780Z,66.80
